Time;durP1;ratioP1;P1;durP2;ratioP2;P2;SDS_P1;SDS_P2;PMS_P1;PMS_P2;Temp;Humidity;BMP_temperature;BMP_pressure;BME280_temperature;BME280_humidity;BME280_pressure;Samples;Min_cycle;Max_cycle;Signal;HPM_P1;HPM_P2
2024/01/05 00:00:54;;;;;;;0.52;0.52;;;;;;;-20.39;50.89;98890.47;5083053;28;20408;-50
2024/01/05 00:03:19;;;;;;;1.85;0.70;;;;;;;-20.65;50.25;98845.72;5078588;28;20451;-56
2024/01/05 00:05:46;;;;;;;2.13;1.20;;;;;;;-20.35;51.03;98905.63;5065808;28;20039;-54
2024/01/05 00:08:11;;;;;;;6.43;0.95;;;;;;;-20.58;50.74;98861.13;5079080;28;20047;-53
2024/01/05 00:10:37;;;;;;;0.50;0.50;;;;;;;-20.42;50.97;98893.59;5080867;28;20044;-51
2024/01/05 00:13:03;;;;;;;2.50;1.40;;;;;;;-20.64;50.51;98863.13;5080414;28;20420;-48
2024/01/05 00:15:29;;;;;;;2.38;1.25;;;;;;;-20.40;50.56;98896.16;5082114;28;20036;-50
2024/01/05 00:18:12;;;;;;;0.17;0.17;;;;;;;-20.38;51.58;98899.59;5083104;28;20044;-50
2024/01/05 00:20:38;;;;;;;2.50;0.63;;;;;;;-20.38;50.79;98897.13;5077554;28;20048;-52
2024/01/05 00:23:04;;;;;;;1.85;1.15;;;;;;;-20.35;51.44;98898.22;5066283;28;20047;-54
2024/01/05 00:25:30;;;;;;;1.92;1.83;;;;;;;-20.36;51.49;98888.25;5065920;28;20044;-56
2024/01/05 00:27:56;;;;;;;5.13;0.90;;;;;;;-20.26;51.50;98898.00;5067129;28;20050;-56
2024/01/05 00:30:22;;;;;;;3.03;1.23;;;;;;;-20.28;51.01;98897.00;5079932;28;20573;-51
2024/01/05 00:32:48;;;;;;;2.17;1.85;;;;;;;-20.58;51.16;98840.50;5088664;28;20038;-53
2024/01/05 00:35:14;;;;;;;1.70;1.00;;;;;;;-20.28;51.09;98899.47;5068627;28;20053;-51
2024/01/05 00:37:40;;;;;;;2.90;1.48;;;;;;;-20.22;51.15;98901.53;5078665;28;20076;-48
2024/01/05 00:40:06;;;;;;;2.90;1.35;;;;;;;-20.25;50.89;98889.84;5080233;28;20046;-51
2024/01/05 00:42:38;;;;;;;1.27;0.82;;;;;;;-20.20;51.72;98902.53;5082734;28;20032;-50
2024/01/05 00:45:04;;;;;;;2.42;1.73;;;;;;;-20.22;51.00;98894.13;5083729;28;20507;-51
2024/01/05 00:47:38;;;;;;;3.47;1.35;;;;;;;-20.17;51.44;98893.69;5073226;28;20046;-52
2024/01/05 00:50:05;;;;;;;1.95;1.58;;;;;;;-20.16;50.96;98890.50;5083641;28;20036;-49
2024/01/05 00:52:31;;;;;;;6.28;1.00;;;;;;;-20.39;51.14;98848.47;5082529;28;20569;-52
2024/01/05 00:54:57;;;;;;;1.77;0.68;;;;;;;-20.18;51.88;98887.03;5083804;28;20074;-51
2024/01/05 00:57:23;;;;;;;4.80;1.70;;;;;;;-20.16;50.69;98889.63;5080082;28;20063;-55
2024/01/05 00:59:49;;;;;;;2.17;0.88;;;;;;;-20.11;51.31;98883.38;5080777;28;20055;-53
2024/01/05 01:02:15;;;;;;;3.15;1.73;;;;;;;-20.06;51.00;98890.38;5052932;28;20052;-55
2024/01/05 01:04:41;;;;;;;2.25;1.63;;;;;;;-20.03;51.24;98897.13;5077163;28;20040;-54
2024/01/05 01:07:07;;;;;;;2.45;1.95;;;;;;;-20.26;51.43;98851.91;5059901;28;20058;-55
2024/01/05 01:09:33;;;;;;;2.92;1.10;;;;;;;-19.98;51.06;98888.44;5078300;28;20510;-53
2024/01/05 01:11:59;;;;;;;2.33;1.08;;;;;;;-19.96;51.01;98890.28;5079987;28;20063;-52
2024/01/05 01:14:25;;;;;;;1.20;0.65;;;;;;;-19.99;51.10;98896.63;5084130;28;20051;-53
2024/01/05 01:16:51;;;;;;;2.10;1.42;;;;;;;-19.95;51.79;98905.97;5086969;28;20044;-55
2024/01/05 01:19:17;;;;;;;1.58;1.00;;;;;;;-19.97;51.28;98887.69;5085173;28;20082;-55
2024/01/05 01:21:43;;;;;;;1.52;1.25;;;;;;;-19.95;52.17;98896.09;5082283;28;20041;-53
2024/01/05 01:24:09;;;;;;;1.10;1.00;;;;;;;-19.95;51.68;98904.38;5071897;28;20512;-53
2024/01/05 01:26:35;;;;;;;1.58;1.48;;;;;;;-19.97;51.45;98900.06;5068702;28;20052;-54
2024/01/05 01:29:01;;;;;;;1.02;0.77;;;;;;;-19.98;50.94;98891.78;5081315;28;20522;-53
2024/01/05 01:31:28;;;;;;;1.92;1.02;;;;;;;-19.95;51.92;98896.94;5087367;28;20048;-55
2024/01/05 01:33:54;;;;;;;3.30;1.65;;;;;;;-19.95;52.11;98898.56;5087545;28;20032;-55
2024/01/05 01:36:21;;;;;;;3.95;1.13;;;;;;;-19.94;51.93;98907.72;5072339;28;20145;-54
2024/01/05 01:38:46;;;;;;;2.75;0.77;;;;;;;-19.95;51.52;98904.38;5072807;28;20070;-54
2024/01/05 01:41:12;;;;;;;3.03;1.63;;;;;;;-20.00;51.33;98897.38;5070815;28;20086;-53
2024/01/05 01:43:45;;;;;;;6.00;1.38;;;;;;;-19.98;51.95;98899.19;5072920;28;20338;-50
2024/01/05 01:46:11;;;;;;;3.30;1.60;;;;;;;-20.00;51.94;98888.34;5084282;28;20511;-51
2024/01/05 01:48:37;;;;;;;4.82;1.13;;;;;;;-20.05;51.76;98896.19;5083876;28;20043;-53
2024/01/05 01:51:03;;;;;;;0.85;0.60;;;;;;;-20.12;52.38;98887.47;5085867;28;20044;-54
2024/01/05 01:53:29;;;;;;;3.80;0.95;;;;;;;-20.09;52.47;98890.16;5082240;28;20040;-54
2024/01/05 01:55:55;;;;;;;1.48;1.00;;;;;;;-20.02;51.58;98896.41;5084136;28;20097;-53
2024/01/05 01:58:21;;;;;;;11.00;1.40;;;;;;;-20.02;51.84;98902.19;5087353;28;20047;-52
2024/01/05 02:00:47;;;;;;;2.10;1.67;;;;;;;-20.07;52.38;98886.19;5084740;28;20063;-53
2024/01/05 02:03:14;;;;;;;2.13;1.13;;;;;;;-20.03;52.07;98897.13;5066806;28;20032;-54
2024/01/05 02:05:41;;;;;;;0.65;0.65;;;;;;;-20.03;51.95;98899.63;5083747;28;20046;-49
2024/01/05 02:08:07;;;;;;;4.43;1.88;;;;;;;-20.01;52.03;98898.13;5085181;28;20126;-53
2024/01/05 02:10:33;;;;;;;1.55;0.90;;;;;;;-20.34;52.43;98850.53;5081983;28;20093;-49
2024/01/05 02:12:59;;;;;;;0.82;0.82;;;;;;;-20.02;52.86;98904.69;5082687;28;20036;-51
2024/01/05 02:15:26;;;;;;;2.30;1.20;;;;;;;-19.96;51.68;98901.78;5085502;28;20339;-53
2024/01/05 02:18:12;;;;;;;6.53;2.60;;;;;;;-19.91;51.97;98900.50;5068153;28;20372;-55
2024/01/05 02:20:38;;;;;;;1.45;1.25;;;;;;;-19.93;52.78;98902.84;5080042;28;20043;-53
2024/01/05 02:23:08;;;;;;;0.70;0.40;;;;;;;-20.17;52.61;98864.03;5051934;28;20040;-54
2024/01/05 02:25:34;;;;;;;3.70;0.85;;;;;;;-19.98;52.28;98888.44;5083070;28;20043;-55
2024/01/05 02:28:00;;;;;;;4.05;1.30;;;;;;;-20.14;52.10;98851.88;5081653;28;20050;-53
2024/01/05 02:30:26;;;;;;;3.72;1.60;;;;;;;-19.99;52.50;98857.91;5076157;28;20138;-53
2024/01/05 02:32:52;;;;;;;1.33;0.88;;;;;;;-19.97;52.38;98868.78;5083528;28;20552;-52
2024/01/05 02:35:17;;;;;;;1.15;0.57;;;;;;;-19.69;52.66;98893.81;5083350;28;20040;-53
2024/01/05 02:37:43;;;;;;;2.05;1.58;;;;;;;-20.00;52.18;98840.53;5086045;28;20071;-52
2024/01/05 02:40:12;;;;;;;2.50;0.98;;;;;;;-19.70;52.71;98888.75;5081864;28;20044;-52
2024/01/05 02:42:39;;;;;;;5.30;1.55;;;;;;;-19.66;52.06;98890.69;5084608;28;20530;-51
2024/01/05 02:45:05;;;;;;;1.90;0.63;;;;;;;-19.63;52.60;98894.25;5085469;28;20051;-52
2024/01/05 02:47:31;;;;;;;1.50;1.13;;;;;;;-19.65;51.79;98902.31;5083728;28;20044;-49
2024/01/05 02:49:57;;;;;;;2.53;1.05;;;;;;;-19.63;52.54;98890.91;5084338;28;20093;-53
2024/01/05 02:52:23;;;;;;;1.05;0.60;;;;;;;-19.63;51.83;98888.44;5082511;28;20745;-52
2024/01/05 02:54:49;;;;;;;0.70;0.70;;;;;;;-19.63;52.58;98898.34;5082825;28;20044;-52
2024/01/05 02:57:15;;;;;;;1.08;0.65;;;;;;;-19.57;52.50;98898.78;5081505;28;20058;-51
2024/01/05 02:59:41;;;;;;;0.70;0.70;;;;;;;-19.82;52.27;98854.16;5082900;28;20507;-52
2024/01/05 03:02:07;;;;;;;1.33;0.73;;;;;;;-19.51;52.40;98904.13;5051178;28;20035;-53
2024/01/05 03:04:33;;;;;;;1.13;1.00;;;;;;;-19.55;52.03;98897.25;5079881;28;20036;-55
2024/01/05 03:06:59;;;;;;;1.63;1.10;;;;;;;-19.57;51.89;98901.25;5081538;28;20471;-54
2024/01/05 03:09:24;;;;;;;1.23;0.55;;;;;;;-19.49;52.11;98910.03;5069169;28;20045;-51
2024/01/05 03:11:50;;;;;;;2.70;1.20;;;;;;;-19.48;51.59;98922.53;5080750;28;20151;-51
2024/01/05 03:14:16;;;;;;;3.95;1.27;;;;;;;-19.46;52.37;98915.19;5084502;28;20036;-51
2024/01/05 03:16:42;;;;;;;5.43;1.50;;;;;;;-19.48;52.64;98917.59;5081506;28;20085;-51
2024/01/05 03:19:08;;;;;;;0.40;0.38;;;;;;;-19.54;52.29;98914.69;5068452;28;20054;-52
2024/01/05 03:21:33;;;;;;;5.53;1.27;;;;;;;-19.58;51.53;98911.88;5083298;28;20454;-55
2024/01/05 03:23:59;;;;;;;3.85;1.85;;;;;;;-19.65;52.25;98910.59;5067748;28;20035;-54
2024/01/05 03:26:25;;;;;;;2.10;1.25;;;;;;;-19.63;52.33;98906.63;5080573;28;20606;-54
2024/01/05 03:28:51;;;;;;;1.08;0.65;;;;;;;-19.67;51.75;98898.88;5081914;28;20102;-54
2024/01/05 03:31:17;;;;;;;1.80;1.42;;;;;;;-19.71;52.36;98897.78;5083447;28;20044;-56
2024/01/05 03:33:44;;;;;;;1.70;1.10;;;;;;;-19.72;52.51;98912.53;5081278;28;20123;-52
2024/01/05 03:36:10;;;;;;;1.73;1.17;;;;;;;-19.74;52.57;98906.63;5080421;28;20503;-56
2024/01/05 03:38:36;;;;;;;1.20;0.88;;;;;;;-19.83;53.14;98902.75;5081723;28;20545;-52
2024/01/05 03:41:02;;;;;;;1.92;0.60;;;;;;;-19.83;52.01;98904.34;5082611;28;20036;-51
2024/01/05 03:43:29;;;;;;;7.05;2.13;;;;;;;-20.38;52.40;98814.00;5084729;28;20032;-53
2024/01/05 03:45:54;;;;;;;0.82;0.40;;;;;;;-19.79;52.52;98918.69;5078282;28;20044;-50
2024/01/05 03:48:20;;;;;;;2.05;1.15;;;;;;;-19.87;52.77;98905.75;5081441;28;20047;-53
2024/01/05 03:50:46;;;;;;;2.80;1.38;;;;;;;-19.87;52.49;98920.59;5087157;28;20540;-50
2024/01/05 03:53:12;;;;;;;1.13;1.02;;;;;;;-19.90;52.05;98922.00;5068329;28;20093;-53
2024/01/05 03:55:38;;;;;;;0.55;0.55;;;;;;;-20.21;52.61;98879.41;5082223;28;20047;-49
2024/01/05 03:58:03;;;;;;;4.72;1.65;;;;;;;-19.94;52.90;98923.41;5093410;28;20040;-55
2024/01/05 04:00:30;;;;;;;1.42;1.13;;;;;;;-19.93;53.16;98927.56;5083983;28;20581;-53
2024/01/05 04:02:55;;;;;;;0.13;0.13;;;;;;;-19.93;52.46;98924.22;5078159;28;20590;-55
2024/01/05 04:05:21;;;;;;;0.55;0.55;;;;;;;-19.99;53.38;98922.19;5081817;28;20061;-52
2024/01/05 04:07:47;;;;;;;1.30;0.98;;;;;;;-19.97;52.95;98917.34;5081720;28;20050;-54
2024/01/05 04:10:13;;;;;;;0.10;0.10;;;;;;;-19.98;53.34;98923.06;5083499;28;20104;-54
2024/01/05 04:12:39;;;;;;;1.48;0.73;;;;;;;-19.93;53.38;98926.72;5080467;28;20067;-55
2024/01/05 04:15:05;;;;;;;2.83;0.73;;;;;;;-19.93;53.86;98921.75;5084936;28;20101;-54
2024/01/05 04:17:32;;;;;;;0.73;0.68;;;;;;;-19.93;52.77;98925.09;5065660;28;20040;-51
2024/01/05 04:19:58;;;;;;;1.98;0.77;;;;;;;-19.93;53.70;98924.22;5083615;28;20466;-54
2024/01/05 04:22:27;;;;;;;0.57;0.57;;;;;;;-19.93;52.77;98915.22;5080910;28;20508;-53
2024/01/05 04:24:53;;;;;;;1.55;0.90;;;;;;;-19.90;52.81;98919.53;5084027;28;20040;-53
2024/01/05 04:27:19;;;;;;;0.28;0.25;;;;;;;-19.87;53.56;98927.16;5065469;28;20039;-55
2024/01/05 04:29:45;;;;;;;1.15;1.05;;;;;;;-19.88;53.50;98921.34;5084585;28;20139;-52
2024/01/05 04:32:11;;;;;;;2.45;0.93;;;;;;;-19.86;53.27;98939.63;5084679;28;20039;-52
2024/01/05 04:34:36;;;;;;;0.43;0.43;;;;;;;-19.97;53.35;98900.06;5083927;28;20040;-52
2024/01/05 04:37:03;;;;;;;1.05;0.60;;;;;;;-19.82;53.05;98919.31;5079281;28;20546;-50
2024/01/05 04:39:29;;;;;;;10.25;1.85;;;;;;;-19.94;53.11;98897.81;5079012;28;20036;-50
2024/01/05 04:41:55;;;;;;;0.43;0.40;;;;;;;-19.62;52.81;98934.72;5077233;28;20094;-51
2024/01/05 04:44:21;;;;;;;4.22;1.33;;;;;;;-19.80;52.64;98906.19;5082151;28;20047;-55
2024/01/05 04:46:47;;;;;;;6.10;0.65;;;;;;;-19.82;52.89;98896.19;5078665;28;20159;-53
2024/01/05 04:49:13;;;;;;;0.55;0.28;;;;;;;-19.84;52.67;98896.09;5086721;28;20040;-50
2024/01/05 04:51:39;;;;;;;2.90;1.33;;;;;;;-19.52;52.37;98942.00;5086672;28;20113;-49
2024/01/05 04:54:04;;;;;;;0.85;0.45;;;;;;;-19.54;52.50;98934.47;5081505;28;20051;-50
2024/01/05 04:56:30;;;;;;;0.73;0.73;;;;;;;-19.58;53.13;98947.38;5075511;28;20634;-50
2024/01/05 04:58:56;;;;;;;1.58;1.17;;;;;;;-19.68;52.45;98951.59;5077805;28;20135;-49
2024/01/05 05:01:22;;;;;;;0.55;0.55;;;;;;;-19.75;52.82;98945.34;5091711;28;20067;-50
2024/01/05 05:03:48;;;;;;;2.92;1.40;;;;;;;-19.84;52.68;98943.09;5081080;28;20032;-49
2024/01/05 05:06:14;;;;;;;0.55;0.52;;;;;;;-19.80;52.92;98948.22;5080138;28;20066;-52
2024/01/05 05:08:40;;;;;;;3.53;1.00;;;;;;;-20.13;52.98;98888.22;5068357;28;20062;-52
2024/01/05 05:11:06;;;;;;;3.70;1.50;;;;;;;-19.90;52.57;98940.16;5076051;28;20045;-55
2024/01/05 05:13:31;;;;;;;0.68;0.68;;;;;;;-20.11;53.58;98913.91;5078728;28;20196;-52
2024/01/05 05:15:58;;;;;;;0.13;0.13;;;;;;;-19.95;52.81;98958.75;5087583;28;20430;-54
2024/01/05 05:18:24;;;;;;;2.42;0.52;;;;;;;-19.96;53.34;98947.16;5075833;28;20059;-53
2024/01/05 05:20:49;;;;;;;0.50;0.50;;;;;;;-19.97;53.00;98945.41;5068862;28;20048;-52
2024/01/05 05:23:15;;;;;;;0.50;0.50;;;;;;;-19.99;53.37;98943.59;5086100;28;20046;-50
2024/01/05 05:25:41;;;;;;;3.83;0.82;;;;;;;-19.99;52.66;98948.56;5072662;28;20159;-52
2024/01/05 05:28:07;;;;;;;3.90;1.40;;;;;;;-20.01;53.25;98947.56;5077810;28;20182;-53
2024/01/05 05:30:33;;;;;;;0.10;0.10;;;;;;;-20.02;53.53;98938.41;5078850;28;20135;-52
2024/01/05 05:32:59;;;;;;;3.55;1.08;;;;;;;-20.26;53.61;98901.34;5068322;28;20040;-53
2024/01/05 05:35:24;;;;;;;2.90;1.02;;;;;;;-20.07;52.91;98937.22;5071652;28;20052;-53
2024/01/05 05:37:50;;;;;;;0.35;0.30;;;;;;;-20.37;52.73;98886.50;5073621;28;20138;-51
2024/01/05 05:40:17;;;;;;;0.68;0.17;;;;;;;-20.07;52.92;98947.97;5077012;28;20052;-55
2024/01/05 05:42:45;;;;;;;0.40;0.20;;;;;;;-20.06;53.22;98943.91;5076541;28;20040;-51
2024/01/05 05:45:11;;;;;;;2.50;0.93;;;;;;;-20.63;53.03;98859.94;5058811;28;20044;-53
2024/01/05 05:47:37;;;;;;;6.72;1.52;;;;;;;-20.07;52.84;98950.47;5076802;28;20072;-50
2024/01/05 05:50:06;;;;;;;3.28;0.90;;;;;;;-20.35;53.57;98897.34;5081281;28;20067;-52
2024/01/05 05:52:34;;;;;;;1.38;1.27;;;;;;;-20.04;52.51;98949.84;5085063;28;20044;-52
2024/01/05 05:55:01;;;;;;;;;;;;;;;-20.05;53.77;98945.63;5083245;28;20071;-52
2024/01/05 05:57:29;;;;;;;0.90;0.55;;;;;;;-20.07;53.29;98949.59;5091284;28;19916;-50
2024/01/05 05:59:55;;;;;;;1.65;0.60;;;;;;;-20.04;52.87;98947.34;5085744;28;20115;-50
2024/01/05 06:02:21;;;;;;;1.25;1.00;;;;;;;-20.06;53.33;98942.28;5084798;28;20127;-51
2024/01/05 06:04:47;;;;;;;1.17;0.47;;;;;;;-20.09;52.50;98938.75;5082476;28;20067;-54
2024/01/05 06:07:13;;;;;;;0.85;0.85;;;;;;;-20.04;53.44;98958.06;5086836;28;20512;-53
2024/01/05 06:09:39;;;;;;;0.15;0.15;;;;;;;-19.97;53.12;98947.88;5083908;28;20043;-51
2024/01/05 06:12:05;;;;;;;1.08;0.28;;;;;;;-19.96;53.22;98949.63;5088086;28;20035;-56
2024/01/05 06:14:31;;;;;;;1.02;0.90;;;;;;;-19.90;53.38;98950.06;5065284;28;20081;-52
2024/01/05 06:16:57;;;;;;;3.08;0.75;;;;;;;-19.88;53.48;98962.50;5085274;28;20112;-53
2024/01/05 06:19:24;;;;;;;1.15;1.05;;;;;;;-19.83;52.90;98954.66;5082307;28;20036;-54
2024/01/05 06:21:50;;;;;;;0.95;0.40;;;;;;;-19.80;53.14;98960.59;5063597;28;20078;-54
2024/01/05 06:24:16;;;;;;;1.73;1.23;;;;;;;-19.77;52.48;98961.66;5077910;28;20135;-53
2024/01/05 06:26:41;;;;;;;1.20;0.65;;;;;;;-19.73;53.30;98957.81;5085839;28;20123;-54
2024/01/05 06:29:08;;;;;;;0.20;0.17;;;;;;;-19.73;52.96;98968.56;5081021;28;20055;-55
2024/01/05 06:31:34;;;;;;;0.47;0.45;;;;;;;-19.74;53.09;98969.31;5063422;28;20041;-53
2024/01/05 06:34:00;;;;;;;0.57;0.55;;;;;;;-19.83;52.36;98957.16;5069220;28;20435;-54
2024/01/05 06:36:26;;;;;;;1.88;1.38;;;;;;;-19.97;52.92;98935.53;5080821;28;20213;-51
2024/01/05 06:38:52;;;;;;;1.05;0.52;;;;;;;-19.67;52.21;98983.81;5074683;28;20131;-54
2024/01/05 06:41:18;;;;;;;3.30;1.83;;;;;;;-19.63;52.64;98985.78;5057883;28;20456;-56
2024/01/05 06:43:44;;;;;;;3.40;1.40;;;;;;;-19.56;53.05;98989.53;5080232;28;20041;-51
2024/01/05 06:46:10;;;;;;;2.75;1.50;;;;;;;-19.60;52.93;98983.53;5068325;28;20098;-54
2024/01/05 06:48:36;;;;;;;8.43;0.73;;;;;;;-19.91;52.50;98925.22;5077709;28;20135;-55
2024/01/05 06:51:02;;;;;;;2.80;1.10;;;;;;;-19.46;52.20;98996.84;5083511;28;20139;-55
2024/01/05 06:53:28;;;;;;;2.38;0.82;;;;;;;-19.43;52.46;99002.88;5078226;28;20044;-52
2024/01/05 06:55:55;;;;;;;1.63;0.80;;;;;;;-19.64;52.37;98966.75;5074097;28;20044;-51
2024/01/05 06:58:21;;;;;;;3.40;1.27;;;;;;;-19.36;52.63;98991.75;5084564;28;20044;-50
2024/01/05 07:00:48;;;;;;;0.77;0.43;;;;;;;-19.74;52.64;98917.38;5066934;28;20032;-47
2024/01/05 07:03:14;;;;;;;0.95;0.77;;;;;;;-19.21;52.14;98997.81;5084656;28;20032;-51
2024/01/05 07:05:40;;;;;;;1.85;1.50;;;;;;;-19.19;52.67;98986.38;5084100;28;20032;-54
2024/01/05 07:08:08;;;;;;;4.40;1.55;;;;;;;-19.09;52.59;99001.13;5084275;28;20158;-52
2024/01/05 07:10:40;;;;;;;3.00;0.82;;;;;;;-18.99;52.74;98998.50;5077502;28;20048;-55
2024/01/05 07:13:07;;;;;;;1.08;0.68;;;;;;;-19.22;51.79;98953.13;5085731;28;20044;-51
2024/01/05 07:15:33;;;;;;;0.57;0.57;;;;;;;-19.19;52.17;98940.94;5069475;28;20529;-52
2024/01/05 07:18:01;;;;;;;1.30;0.45;;;;;;;-18.83;52.13;99007.84;5084551;28;20043;-55
2024/01/05 07:20:27;;;;;;;6.22;1.73;;;;;;;-18.75;51.67;99008.38;5080786;28;20039;-52
2024/01/05 07:22:53;;;;;;;6.60;1.48;;;;;;;-18.65;51.57;99011.59;5079549;28;20036;-59
2024/01/05 07:25:20;;;;;;;1.45;1.17;;;;;;;-18.51;51.62;99014.97;5082244;28;20051;-51
2024/01/05 07:27:45;;;;;;;3.53;1.95;;;;;;;-18.79;51.46;98942.91;5081231;28;20052;-55
2024/01/05 07:30:12;;;;;;;3.28;1.27;;;;;;;-18.57;51.38;98968.34;5082490;28;20043;-54
2024/01/05 07:32:57;;;;;;;2.20;1.27;;;;;;;-18.32;51.52;99008.00;5065896;28;20047;-57
2024/01/05 07:35:29;;;;;;;1.58;1.13;;;;;;;-18.29;51.18;99010.69;5068473;28;20621;-59
2024/01/05 07:37:55;;;;;;;2.03;1.10;;;;;;;-18.24;51.00;99010.97;5080969;28;20044;-51
2024/01/05 07:40:29;;;;;;;3.75;0.60;;;;;;;-18.16;50.91;98999.97;5066355;28;20048;-52
2024/01/05 07:42:55;;;;;;;3.38;0.95;;;;;;;-17.98;50.89;99005.25;5060656;28;20721;-55
2024/01/05 07:45:21;;;;;;;2.67;1.00;;;;;;;-17.85;50.76;98975.53;5076130;28;20044;-54
2024/01/05 07:47:58;;;;;;;2.42;1.63;;;;;;;-17.14;50.27;98971.69;5075881;28;20416;-53
2024/01/05 07:50:24;;;;;;;5.88;2.85;;;;;;;-16.27;49.79;99007.63;5062754;28;20029;-54
2024/01/05 07:52:51;;;;;;;6.78;1.77;;;;;;;-15.79;49.15;99002.97;5082826;28;20036;-53
2024/01/05 07:55:17;;;;;;;7.13;2.15;;;;;;;-15.07;48.68;99006.19;5093010;28;20048;-53
2024/01/05 07:57:43;;;;;;;2.90;1.80;;;;;;;-14.92;47.10;99000.31;5073887;28;20074;-55
2024/01/05 08:00:11;;;;;;;4.05;1.52;;;;;;;-14.91;47.50;98999.56;5079825;28;20542;-51
2024/01/05 08:02:43;;;;;;;6.15;1.98;;;;;;;-14.95;46.77;98972.72;5066717;28;20561;-52
2024/01/05 08:05:11;;;;;;;8.05;3.25;;;;;;;-14.40;45.68;99001.44;5082875;28;20085;-50
2024/01/05 08:07:37;;;;;;;4.18;1.65;;;;;;;-14.75;46.14;99005.41;5073266;28;20039;-52
2024/01/05 08:10:04;;;;;;;8.27;2.00;;;;;;;-15.00;45.10;99004.03;5068207;28;20049;-55
2024/01/05 08:12:32;;;;;;;;;;;;;;;-15.40;46.31;99003.50;5081155;28;20080;-55
2024/01/05 08:14:58;;;;;;;6.68;1.58;;;;;;;-15.42;46.22;99005.88;5070356;28;19970;-54
2024/01/05 08:17:24;;;;;;;8.00;2.47;;;;;;;-15.14;46.24;98999.16;5078303;28;20039;-53
2024/01/05 08:19:50;;;;;;;5.35;1.85;;;;;;;-14.00;45.60;99005.16;5082852;28;20043;-55
2024/01/05 08:22:16;;;;;;;3.53;2.17;;;;;;;-12.63;45.10;99009.22;5068031;28;20044;-53
2024/01/05 08:24:42;;;;;;;6.75;2.72;;;;;;;-12.20;43.65;98936.88;5074476;28;20036;-52
2024/01/05 08:27:08;;;;;;;8.32;2.03;;;;;;;-11.87;42.89;99007.56;5075813;28;20045;-55
2024/01/05 08:29:34;;;;;;;5.57;2.08;;;;;;;-11.79;43.26;98999.59;5072596;28;20419;-54
2024/01/05 08:32:02;;;;;;;5.68;2.35;;;;;;;-11.61;42.40;98999.44;5076913;28;20195;-53
2024/01/05 08:34:29;;;;;;;7.40;2.47;;;;;;;-11.26;42.57;99008.44;5082060;28;20100;-54
2024/01/05 08:36:55;;;;;;;5.50;2.70;;;;;;;-9.99;41.65;99002.31;5066974;28;20044;-53
2024/01/05 08:39:21;;;;;;;8.77;3.17;;;;;;;-9.49;40.54;98919.41;5080332;28;20431;-56
2024/01/05 08:41:47;;;;;;;8.55;2.92;;;;;;;-8.73;40.53;98992.25;5051051;28;20127;-55
2024/01/05 08:44:14;;;;;;;8.10;2.58;;;;;;;-8.83;39.25;98985.25;5083316;28;20538;-57
2024/01/05 08:46:41;;;;;;;11.73;3.88;;;;;;;-9.44;39.12;98975.75;5063259;28;20044;-57
2024/01/05 08:49:07;;;;;;;5.55;2.20;;;;;;;-9.66;39.10;99002.66;5071356;28;20028;-53
2024/01/05 08:51:33;;;;;;;5.38;2.63;;;;;;;-9.99;38.73;98967.13;5078038;28;20040;-55
2024/01/05 08:54:01;;;;;;;7.38;2.90;;;;;;;-9.81;39.12;98997.97;5079675;28;20138;-53
2024/01/05 08:56:27;;;;;;;6.25;2.03;;;;;;;-9.44;37.67;99002.56;5081654;28;20045;-52
2024/01/05 08:58:53;;;;;;;9.20;3.03;;;;;;;-9.73;37.66;99000.75;5084648;28;20179;-52
2024/01/05 09:01:19;;;;;;;6.05;2.90;;;;;;;-9.96;38.19;98995.78;5081598;28;20072;-54
2024/01/05 09:03:45;;;;;;;8.68;2.85;;;;;;;-9.31;37.82;98989.56;5078586;28;20040;-52
2024/01/05 09:06:11;;;;;;;6.53;3.20;;;;;;;-10.00;37.60;98973.84;5078977;28;20105;-52
2024/01/05 09:08:37;;;;;;;9.48;2.92;;;;;;;-10.63;38.42;98999.19;5070371;28;20896;-56
2024/01/05 09:11:04;;;;;;;6.32;2.92;;;;;;;-10.36;38.33;98997.72;5075890;28;20042;-55
2024/01/05 09:13:30;;;;;;;7.45;2.65;;;;;;;-10.60;38.46;98985.06;5079827;28;20036;-55
2024/01/05 09:15:56;;;;;;;8.48;3.40;;;;;;;-11.12;38.25;98987.25;5082674;28;20117;-56
2024/01/05 09:18:23;;;;;;;8.23;2.70;;;;;;;-11.79;38.90;98988.72;5082618;28;20496;-54
2024/01/05 09:20:51;;;;;;;10.70;3.58;;;;;;;-12.32;40.12;98989.78;5078296;28;20080;-53
2024/01/05 09:23:17;;;;;;;5.60;2.83;;;;;;;-12.65;40.12;98991.63;5056103;28;20032;-54
2024/01/05 09:25:43;;;;;;;8.77;2.28;;;;;;;-12.97;40.58;98990.16;5044431;28;20062;-53
2024/01/05 09:28:09;;;;;;;5.50;2.60;;;;;;;-13.34;40.87;98989.25;5070102;28;20105;-54
2024/01/05 09:30:35;;;;;;;8.00;2.67;;;;;;;-13.70;41.29;98984.97;5069695;28;20090;-53
2024/01/05 09:33:02;;;;;;;5.80;2.78;;;;;;;-13.93;42.03;98981.34;5074974;28;20073;-51
2024/01/05 09:35:28;;;;;;;2.95;1.75;;;;;;;-14.11;42.02;98980.41;5071816;28;20036;-54
2024/01/05 09:38:14;;;;;;;5.60;3.13;;;;;;;-14.37;41.88;98986.63;5065506;28;20367;-52
2024/01/05 09:41:01;;;;;;;11.68;2.45;;;;;;;-14.92;42.62;98923.91;5080830;28;20036;-54
2024/01/05 09:43:48;;;;;;;6.57;3.03;;;;;;;-14.59;43.07;98974.66;5072913;28;20079;-55
2024/01/05 09:46:35;;;;;;;11.38;3.65;;;;;;;-14.45;43.64;98985.38;5081527;28;20515;-52
2024/01/05 09:49:22;;;;;;;11.77;3.10;;;;;;;-14.64;42.98;98921.19;5068893;28;20122;-51
2024/01/05 09:52:08;;;;;;;8.52;3.38;;;;;;;-14.06;42.93;98976.50;5080893;28;20058;-55
2024/01/05 09:54:56;;;;;;;5.20;2.85;;;;;;;-13.19;42.52;98966.63;5071919;28;20055;-51
2024/01/05 09:57:42;;;;;;;7.05;2.80;;;;;;;-12.89;41.59;98927.97;5071316;28;20062;-56
2024/01/05 10:00:28;;;;;;;8.23;3.33;;;;;;;-12.80;41.50;98975.06;5070909;28;20069;-54
2024/01/05 10:03:24;;;;;;;7.25;2.38;;;;;;;-13.12;41.50;98966.09;5057188;28;20032;-54
2024/01/05 10:06:09;;;;;;;7.30;2.78;;;;;;;-13.15;42.36;98969.34;5087248;28;20097;-51
2024/01/05 10:09:01;;;;;;;9.07;2.33;;;;;;;-13.18;41.96;98969.19;5075172;28;20044;-52
2024/01/05 10:11:47;;;;;;;5.82;2.00;;;;;;;-13.48;41.97;98921.13;5072385;28;20527;-51
2024/01/05 10:14:32;;;;;;;5.70;2.72;;;;;;;-13.26;42.50;98960.47;5069048;28;20040;-51
2024/01/05 10:17:18;;;;;;;13.23;3.33;;;;;;;-13.49;42.59;98934.38;5072993;28;20052;-52
2024/01/05 10:20:11;;;;;;;8.02;2.70;;;;;;;-13.40;42.28;98973.97;5075795;28;20127;-53
2024/01/05 10:23:03;;;;;;;8.32;2.88;;;;;;;-13.61;42.80;98967.94;5070367;28;20043;-52
2024/01/05 10:25:51;;;;;;;7.70;3.47;;;;;;;-14.16;43.45;98892.81;5083814;28;20051;-52
2024/01/05 10:28:38;;;;;;;6.10;3.42;;;;;;;-13.78;43.55;98967.13;5041311;28;20056;-51
2024/01/05 10:31:24;;;;;;;12.00;3.78;;;;;;;-13.87;43.27;98962.50;5090717;28;20044;-53
2024/01/05 10:34:10;;;;;;;11.23;2.92;;;;;;;-13.92;43.41;98975.59;5078137;28;20105;-52
2024/01/05 10:37:06;;;;;;;9.88;3.05;;;;;;;-14.12;43.22;98971.22;5067596;28;20198;-53
2024/01/05 10:40:03;;;;;;;7.53;2.88;;;;;;;-14.09;43.50;98969.75;5072842;28;20048;-50
2024/01/05 10:42:50;;;;;;;7.82;3.10;;;;;;;-13.99;44.30;98969.41;5079747;28;20557;-51
2024/01/05 10:45:37;;;;;;;10.77;2.22;;;;;;;-13.81;43.68;98971.94;5054377;28;20748;-54
2024/01/05 10:48:24;;;;;;;5.55;2.67;;;;;;;-13.61;44.16;98967.94;5073262;28;20048;-50
2024/01/05 10:51:20;;;;;;;4.78;2.00;;;;;;;-13.47;43.92;98967.81;5080985;28;20047;-55
2024/01/05 10:54:07;;;;;;;5.82;2.45;;;;;;;-13.32;43.68;98970.19;5066679;28;20130;-52
2024/01/05 10:56:55;;;;;;;7.13;2.63;;;;;;;-12.71;43.32;98978.81;5061411;28;20051;-54
2024/01/05 10:59:48;;;;;;;7.20;3.23;;;;;;;-11.92;42.80;98972.28;5069658;28;20044;-52
2024/01/05 11:02:40;;;;;;;4.80;2.15;;;;;;;-9.85;41.32;98943.34;5062187;28;20040;-54
2024/01/05 11:05:27;;;;;;;14.60;1.88;;;;;;;-8.16;39.04;98954.41;5070994;28;20135;-54
2024/01/05 11:08:51;;;;;;;5.03;2.40;;;;;;;-6.54;37.55;98968.53;5072319;28;20036;-57
2024/01/05 11:12:27;;;;;;;11.85;3.95;;;;;;;-5.02;34.92;98966.28;5058399;28;20051;-57
2024/01/05 11:15:33;;;;;;;6.50;2.92;;;;;;;-4.06;34.08;98970.19;4997245;28;20050;-57
2024/01/05 11:18:26;;;;;;;8.18;2.78;;;;;;;-3.11;33.50;98968.66;4955082;28;20050;-53
2024/01/05 11:21:34;;;;;;;10.30;3.75;;;;;;;-2.37;32.86;98973.41;5046665;28;20449;-58
2024/01/05 11:24:20;;;;;;;6.45;2.95;;;;;;;-2.23;32.41;98938.69;5080475;28;20051;-53
2024/01/05 11:27:30;;;;;;;8.27;3.90;;;;;;;-1.67;32.23;98971.13;5069027;28;20071;-55
2024/01/05 11:30:44;;;;;;;11.60;4.40;;;;;;;-1.25;32.04;98974.63;5070200;28;20040;-55
2024/01/05 11:33:49;;;;;;;9.88;4.03;;;;;;;-0.92;31.91;98972.09;5082615;28;20055;-56
2024/01/05 11:36:51;;;;;;;11.32;4.15;;;;;;;-1.05;31.42;98966.19;5082194;28;20040;-57
2024/01/05 11:39:40;;;;;;;16.33;4.53;;;;;;;-0.64;31.23;98967.84;5080802;28;20044;-53
2024/01/05 11:42:27;;;;;;;13.70;4.60;;;;;;;-0.71;30.61;98972.09;5051121;28;20112;-55